Time;durP1;ratioP1;P1;durP2;ratioP2;P2;SDS_P1;SDS_P2;PMS_P1;PMS_P2;Temp;Humidity;BMP_temperature;BMP_pressure;BME280_temperature;BME280_humidity;BME280_pressure;Samples;Min_cycle;Max_cycle;Signal;HPM_P1;HPM_P2
2022/09/06 11:58:28;;;;;;;4.50;3.00;;;;;;;24.55;40.00;64540.25;4921966;26;1305887;-75
2022/09/06 12:01:39;;;;;;;4.60;2.50;;;;;;;24.66;39.44;64554.38;4987643;28;20227;-75
2022/09/06 12:04:18;;;;;;;2.42;2.33;;;;;;;24.53;40.19;64538.16;4981059;28;20275;-74
2022/09/06 12:07:11;;;;;;;2.47;2.38;;;;;;;24.73;39.15;64564.31;4970292;29;20227;-76
2022/09/06 12:09:41;;;;;;;3.72;3.00;;;;;;;24.90;38.96;64579.53;4967649;29;20271;-75
2022/09/06 12:12:09;;;;;;;2.92;2.75;;;;;;;24.90;39.90;64579.53;4967247;28;20232;-78
2022/09/06 12:14:39;;;;;;;2.90;2.72;;;;;;;25.16;38.23;64603.66;4968013;29;20280;-76
2022/09/06 12:17:24;;;;;;;3.00;2.80;;;;;;;25.47;37.83;64633.50;4975838;28;20211;-74
2022/09/06 12:19:53;;;;;;;2.55;2.45;;;;;;;25.74;37.93;64669.66;4984446;28;20215;-75
2022/09/06 12:22:51;;;;;;;3.20;2.92;;;;;;;25.87;38.11;64678.03;4983657;28;20216;-76
2022/09/06 12:25:18;;;;;;;3.05;2.72;;;;;;;25.97;37.00;64688.00;4980181;28;20219;-75
2022/09/06 12:27:56;;;;;;;2.85;2.75;;;;;;;26.07;38.89;64699.03;4970805;28;20656;-76
2022/09/06 12:30:37;;;;;;;2.30;2.20;;;;;;;26.09;37.94;64703.72;4976218;28;20200;-76
2022/09/06 12:33:09;;;;;;;2.60;2.50;;;;;;;26.20;37.04;64715.25;4968949;29;20245;-75
2022/09/06 12:35:37;;;;;;;2.65;2.55;;;;;;;25.94;37.41;64682.78;4970106;29;20520;-76
2022/09/06 12:38:05;;;;;;;2.90;2.70;;;;;;;25.80;36.12;64673.31;4980131;28;20227;-76
2022/09/06 12:40:39;;;;;;;2.95;2.75;;;;;;;25.81;36.36;64671.22;4989327;28;20238;-75
2022/09/06 12:43:10;;;;;;;2.60;2.50;;;;;;;25.81;39.94;64676.44;4987831;28;20222;-76
2022/09/06 12:45:43;;;;;;;1.88;1.77;;;;;;;25.71;41.05;64663.91;4984300;28;20203;-74
2022/09/06 12:48:12;;;;;;;3.03;2.40;;;;;;;25.97;40.82;64688.00;4969219;28;20279;-75
2022/09/06 12:50:40;;;;;;;2.28;2.03;;;;;;;25.75;41.87;64670.16;4969715;28;20275;-74
2022/09/06 12:53:23;;;;;;;2.75;2.45;;;;;;;25.71;41.00;64666.50;4986326;28;20254;-76
2022/09/06 12:56:03;;;;;;;2.95;2.75;;;;;;;25.59;41.84;64648.69;4983448;28;20223;-76
2022/09/06 12:58:30;;;;;;;2.55;2.45;;;;;;;25.70;42.24;64664.91;4970184;28;20207;-75
2022/09/06 13:01:07;;;;;;;2.50;2.30;;;;;;;25.42;42.16;64636.09;4969379;29;20258;-75
2022/09/06 13:03:38;;;;;;;2.40;2.30;;;;;;;25.51;42.48;64639.78;4969693;29;20188;-74
2022/09/06 13:06:06;;;;;;;2.50;2.40;;;;;;;25.57;42.58;64644.00;4970042;29;20244;-74
2022/09/06 13:08:39;;;;;;;2.45;2.35;;;;;;;25.59;42.70;64650.78;4970844;28;20419;-75
2022/09/06 13:11:12;;;;;;;2.53;2.40;;;;;;;25.38;43.64;64631.91;4968884;29;20308;-75
2022/09/06 13:13:50;;;;;;;2.88;2.35;;;;;;;25.42;43.96;64635.59;4971485;29;20189;-75
2022/09/06 13:16:24;;;;;;;3.58;2.35;;;;;;;25.31;43.97;64616.75;4970401;29;20271;-76
2022/09/06 13:18:51;;;;;;;3.58;2.20;;;;;;;25.25;43.02;64612.53;4975071;28;20270;-74
2022/09/06 13:21:26;;;;;;;2.13;1.98;;;;;;;25.24;43.20;64617.22;4989360;28;20235;-74
2022/09/06 13:23:54;;;;;;;2.55;2.45;;;;;;;25.43;44.84;64631.41;4989140;28;20198;-75
2022/09/06 13:26:35;;;;;;;2.40;2.25;;;;;;;25.81;42.93;64674.38;4989052;28;20219;-75
2022/09/06 13:29:21;;;;;;;2.58;1.95;;;;;;;25.91;40.54;64679.09;4971331;28;20208;-75
2022/09/06 13:31:51;;;;;;;4.95;2.78;;;;;;;26.19;41.41;64718.91;4970247;29;20266;-76
2022/09/06 13:34:24;;;;;;;2.17;2.08;;;;;;;26.62;40.90;64755.63;4986742;28;20196;-75
2022/09/06 13:36:52;;;;;;;1.92;1.92;;;;;;;26.86;39.48;64783.44;4974002;28;20251;-75
2022/09/06 13:39:31;;;;;;;2.85;1.98;;;;;;;27.28;39.03;64824.91;4969907;28;20204;-75
2022/09/06 13:42:02;;;;;;;2.15;2.05;;;;;;;27.42;37.69;64842.22;4967630;28;20239;-75
2022/09/06 13:44:31;;;;;;;5.18;1.92;;;;;;;27.73;37.81;64874.22;4967270;29;20510;-74
2022/09/06 13:46:59;;;;;;;2.08;1.92;;;;;;;28.08;37.80;64908.34;4968160;29;20230;-75
2022/09/06 13:49:27;;;;;;;2.00;1.90;;;;;;;28.00;36.37;64910.44;4970180;28;20197;-75
2022/09/06 13:51:55;;;;;;;1.65;1.65;;;;;;;27.57;35.28;64857.94;4980705;28;20238;-76
2022/09/06 13:54:22;;;;;;;2.17;2.08;;;;;;;27.07;36.69;64806.00;4985238;28;20204;-77
2022/09/06 13:56:49;;;;;;;2.20;2.10;;;;;;;26.77;37.18;64776.63;4990574;28;20238;-74
2022/09/06 13:59:17;;;;;;;2.35;2.13;;;;;;;26.34;39.13;64732.03;4986200;28;20199;-75
2022/09/06 14:01:47;;;;;;;1.73;1.63;;;;;;;25.33;40.28;64624.06;4989637;28;20523;-74
2022/09/06 14:04:20;;;;;;;2.25;2.05;;;;;;;24.79;41.95;64564.88;4979568;28;20220;-74
2022/09/06 14:06:47;;;;;;;1.77;1.77;;;;;;;24.47;41.92;64536.56;4985031;28;20231;-74
2022/09/06 14:09:14;;;;;;;2.65;1.58;;;;;;;24.26;42.27;64514.56;4981202;28;20195;-74
2022/09/06 14:11:42;;;;;;;2.00;1.90;;;;;;;24.25;42.68;64516.66;4968573;28;20255;-73
2022/09/06 14:14:10;;;;;;;2.90;1.95;;;;;;;24.18;42.83;64506.22;4977236;28;20421;-74
2022/09/06 14:16:37;;;;;;;3.88;1.90;;;;;;;24.62;41.85;64549.66;4975127;28;20324;-75
2022/09/06 14:19:04;;;;;;;2.15;1.40;;;;;;;25.26;41.90;64613.59;4978519;28;20207;-75
2022/09/06 14:21:32;;;;;;;1.73;1.67;;;;;;;25.65;40.54;64654.47;4987935;28;20282;-74
2022/09/06 14:24:00;;;;;;;1.65;1.58;;;;;;;26.03;40.03;64702.13;4985327;28;20371;-75
2022/09/06 14:26:28;;;;;;;2.38;1.40;;;;;;;26.03;39.07;64702.13;4974332;28;20223;-74
2022/09/06 14:28:55;;;;;;;5.97;4.97;;;;;;;25.85;38.98;64678.56;4984245;28;20253;-74
2022/09/06 14:31:25;;;;;;;5.32;4.53;;;;;;;24.84;41.32;64573.25;4980331;28;20224;-74
2022/09/06 14:33:52;;;;;;;6.15;4.75;;;;;;;24.27;41.74;64513.53;4982983;28;20445;-76
2022/09/06 14:36:22;;;;;;;3.10;2.10;;;;;;;23.81;42.73;64465.38;4968311;28;20261;-77
2022/09/06 14:38:51;;;;;;;5.13;2.65;;;;;;;23.48;43.35;64430.84;4972798;28;20207;-77
2022/09/06 14:41:19;;;;;;;2.85;2.17;;;;;;;23.44;43.87;64431.84;4985393;28;20249;-76
2022/09/06 14:43:49;;;;;;;2.15;2.05;;;;;;;23.25;44.59;64409.88;4975261;28;20202;-77
2022/09/06 14:46:17;;;;;;;1.55;1.45;;;;;;;23.29;44.62;64413.56;4980324;28;20271;-77
2022/09/06 14:48:45;;;;;;;1.75;1.70;;;;;;;23.10;44.58;64389.00;4967359;29;20276;-77
2022/09/06 14:51:16;;;;;;;1.77;1.77;;;;;;;23.20;44.54;64407.25;4965177;28;20214;-76
2022/09/06 14:53:44;;;;;;;6.10;1.98;;;;;;;23.26;44.97;64407.81;4966451;29;20536;-77
2022/09/06 14:56:13;;;;;;;1.90;1.80;;;;;;;23.12;45.74;64388.50;4965933;28;20558;-77
2022/09/06 14:58:41;;;;;;;1.90;1.83;;;;;;;22.99;46.91;64380.09;4968626;28;20263;-77
2022/09/06 15:01:12;;;;;;;5.38;2.58;;;;;;;22.99;46.53;64382.19;4968037;28;20243;-76
2022/09/06 15:03:41;;;;;;;1.77;1.67;;;;;;;23.12;46.34;64393.16;4966617;28;20220;-77
2022/09/06 15:06:10;;;;;;;1.83;1.73;;;;;;;23.30;46.68;64406.81;4983419;28;20448;-77
2022/09/06 15:08:37;;;;;;;3.03;1.80;;;;;;;23.46;46.57;64426.69;4979593;28;20268;-77
2022/09/06 15:11:06;;;;;;;2.28;1.92;;;;;;;23.60;46.50;64443.94;4983461;28;20487;-79
2022/09/06 15:13:36;;;;;;;3.80;1.90;;;;;;;23.72;45.41;64453.88;4979442;28;20264;-77
2022/09/06 15:16:03;;;;;;;1.63;1.55;;;;;;;23.70;45.89;64451.78;4969060;28;20211;-77
2022/09/06 15:18:31;;;;;;;2.55;1.90;;;;;;;23.69;45.75;64453.34;4975502;28;20222;-77
2022/09/06 15:20:59;;;;;;;2.63;2.28;;;;;;;23.38;46.42;64423.53;4967093;28;20439;-76
2022/09/06 15:23:27;;;;;;;2.38;2.17;;;;;;;;;;4965631;28;20239;-76
2022/09/06 15:25:53;;;;;;;1.98;1.88;;;;;;;22.69;48.33;64348.72;4965994;29;20285;-77
2022/09/06 15:28:21;;;;;;;2.50;2.40;;;;;;;22.60;49.47;64337.25;4965405;29;20196;-75
2022/09/06 15:30:49;;;;;;;2.65;2.22;;;;;;;22.47;49.94;64328.81;4975127;28;20199;-76
2022/09/06 15:33:16;;;;;;;3.92;1.85;;;;;;;22.50;50.09;64328.84;4984813;28;20216;-76
2022/09/06 15:35:43;;;;;;;2.53;2.33;;;;;;;22.60;50.83;64337.25;4984359;28;21322;-76
2022/09/06 15:38:11;;;;;;;7.60;3.28;;;;;;;22.30;52.01;64307.94;4985487;28;20267;-75
2022/09/06 15:40:51;;;;;;;2.28;2.08;;;;;;;22.33;52.22;64308.47;5141800;23;21140;-76
2022/09/06 15:43:18;;;;;;;2.58;2.42;;;;;;;22.36;53.26;64314.22;5004337;28;20206;-75
2022/09/06 15:45:47;;;;;;;2.20;2.00;;;;;;;22.32;53.36;64304.84;5003674;28;21417;-76
2022/09/06 15:48:17;;;;;;;2.58;2.38;;;;;;;22.33;54.03;64311.59;4999929;28;20221;-75
2022/09/06 15:50:44;;;;;;;5.05;2.85;;;;;;;22.33;54.68;64311.59;5001506;28;20274;-75
2022/09/06 15:53:12;;;;;;;2.42;2.33;;;;;;;22.31;54.26;64308.97;5001912;28;20233;-76
2022/09/06 15:55:57;;;;;;;2.25;2.15;;;;;;;22.27;55.10;64305.31;5002939;28;20520;-76
2022/09/06 15:58:24;;;;;;;2.58;2.28;;;;;;;22.19;54.76;64301.63;5002547;28;20423;-76
2022/09/06 16:01:03;;;;;;;2.33;2.13;;;;;;;22.14;55.95;64288.63;5002599;28;20570;-76
2022/09/06 16:03:32;;;;;;;2.40;2.30;;;;;;;22.11;56.94;64280.81;5001401;28;20242;-76
2022/09/06 16:06:04;;;;;;;3.60;3.30;;;;;;;22.11;58.11;64285.47;5007682;28;20214;-77
2022/09/06 16:08:32;;;;;;;4.00;3.28;;;;;;;22.08;59.03;64285.47;5006276;28;20195;-77
2022/09/06 16:10:59;;;;;;;2.83;2.63;;;;;;;22.08;59.17;64288.06;5008513;28;20222;-77
2022/09/06 16:13:32;;;;;;;3.08;2.80;;;;;;;22.00;61.63;64279.72;5008301;28;20471;-78
2022/09/06 16:16:16;;;;;;;3.63;3.38;;;;;;;21.98;61.59;64277.09;5004845;28;20218;-77
2022/09/06 16:18:46;;;;;;;5.50;2.90;;;;;;;21.99;61.35;64275.53;5010052;28;20230;-77
2022/09/06 16:21:18;;;;;;;2.97;2.67;;;;;;;21.76;62.80;64252.53;5008852;28;20402;-78
2022/09/06 16:23:49;;;;;;;2.67;2.55;;;;;;;21.67;63.81;64237.94;5003550;28;20219;-78
2022/09/06 16:26:16;;;;;;;2.60;2.40;;;;;;;21.55;64.90;64232.66;5011456;28;20229;-78
2022/09/06 16:28:43;;;;;;;2.42;2.33;;;;;;;21.56;64.92;64234.22;5007829;28;20202;-78
2022/09/06 16:31:10;;;;;;;3.20;1.98;;;;;;;21.33;67.05;64207.59;5009280;28;20377;-79
2022/09/06 16:33:39;;;;;;;2.92;2.72;;;;;;;21.33;68.16;64204.50;5011740;28;20241;-77
2022/09/06 16:36:09;;;;;;;2.40;2.30;;;;;;;21.28;68.88;64202.38;5003050;28;20226;-77
2022/09/06 16:38:37;;;;;;;2.75;2.30;;;;;;;21.15;69.38;64190.88;5008529;28;20498;-76
2022/09/06 16:41:12;;;;;;;3.75;2.58;;;;;;;20.98;70.02;64167.94;5009380;28;20237;-76
2022/09/06 16:43:39;;;;;;;4.22;2.35;;;;;;;20.77;69.88;64151.19;5007559;28;20198;-77
2022/09/06 16:46:06;;;;;;;2.83;2.58;;;;;;;20.68;70.08;64142.31;5008696;28;20237;-77
2022/09/06 16:48:33;;;;;;;2.47;2.28;;;;;;;20.52;72.71;64117.81;5007120;28;20222;-78
2022/09/06 16:51:10;;;;;;;2.17;2.08;;;;;;;20.55;72.47;64129.25;5009227;28;20262;-78
2022/09/06 16:53:39;;;;;;;2.70;2.30;;;;;;;20.37;73.14;64105.28;5008733;28;20202;-77
2022/09/06 16:56:07;;;;;;;2.78;2.58;;;;;;;20.32;73.60;64102.13;5007713;28;20253;-78
2022/09/06 16:58:34;;;;;;;2.95;2.83;;;;;;;20.25;74.20;64095.34;5008163;28;20221;-77
2022/09/06 17:01:08;;;;;;;2.17;2.08;;;;;;;20.01;75.21;64069.78;5006654;28;20265;-77
2022/09/06 17:03:36;;;;;;;5.63;2.70;;;;;;;19.97;76.12;64065.59;5007761;28;20249;-77
2022/09/06 17:06:03;;;;;;;3.00;2.80;;;;;;;20.00;74.53;64066.66;5006436;28;20227;-77
2022/09/06 17:08:33;;;;;;;2.33;2.15;;;;;;;19.87;75.81;64052.56;5007420;28;20260;-77
2022/09/06 17:11:01;;;;;;;13.00;2.83;;;;;;;19.74;77.28;64039.56;4990818;28;20223;-78
2022/09/06 17:13:29;;;;;;;3.05;2.70;;;;;;;19.62;77.35;64029.63;4994299;28;20218;-78
2022/09/06 17:18:40;;;;;;;2.83;2.50;;;;;;;19.45;79.16;64009.81;4997385;28;20246;-77
2022/09/06 17:21:07;;;;;;;2.50;2.40;;;;;;;19.38;79.39;64002.50;4998940;28;20485;-77
2022/09/06 17:23:36;;;;;;;2.45;2.35;;;;;;;19.31;79.34;63997.78;5006247;28;20267;-77
2022/09/06 17:26:03;;;;;;;2.80;2.67;;;;;;;19.18;80.60;63984.22;5011787;28;20265;-78
2022/09/06 17:28:34;;;;;;;2.85;2.65;;;;;;;19.11;80.03;63978.97;5018660;28;20202;-77
2022/09/06 17:31:02;;;;;;;3.03;2.92;;;;;;;19.08;80.35;63973.81;5010258;28;20310;-78
2022/09/06 17:33:30;;;;;;;3.25;2.92;;;;;;;19.02;81.74;63970.13;5005732;28;20202;-79
2022/09/06 17:36:06;;;;;;;2.97;2.78;;;;;;;18.96;81.09;63960.75;5007242;28;20254;-77
2022/09/06 17:38:37;;;;;;;3.83;3.05;;;;;;;18.90;82.34;63951.91;5008042;28;20203;-77
2022/09/06 17:41:05;;;;;;;10.60;3.15;;;;;;;18.74;83.52;63943.00;5007151;28;21123;-77
2022/09/06 17:43:32;;;;;;;3.40;3.20;;;;;;;18.68;82.94;63931.56;5007830;28;20210;-76
2022/09/06 17:45:59;;;;;;;3.20;3.00;;;;;;;18.59;84.01;63917.03;5006294;28;20273;-77
2022/09/06 17:48:28;;;;;;;3.75;3.00;;;;;;;18.47;85.51;63912.78;5005028;28;20199;-77
2022/09/06 17:50:55;;;;;;;3.67;3.42;;;;;;;18.51;84.89;63911.28;5007831;28;20301;-77
2022/09/06 17:53:22;;;;;;;3.83;3.40;;;;;;;18.47;84.79;63905.06;5007252;28;20203;-76
2022/09/06 17:55:52;;;;;;;4.70;3.15;;;;;;;18.45;85.17;63910.69;5009166;28;20222;-77
2022/09/06 17:58:19;;;;;;;3.30;3.00;;;;;;;18.39;85.66;63904.44;5003036;28;20200;-77
2022/09/06 18:00:46;;;;;;;4.45;3.10;;;;;;;18.35;86.59;63898.22;5026922;28;20210;-78
2022/09/06 18:03:13;;;;;;;2.70;2.50;;;;;;;18.28;86.53;63890.91;5011208;28;20282;-77
2022/09/06 18:05:40;;;;;;;3.78;3.03;;;;;;;18.24;85.79;63883.66;5006470;28;20273;-77
2022/09/06 18:08:11;;;;;;;3.17;2.97;;;;;;;18.25;85.72;63890.38;5010023;28;20434;-79
2022/09/06 18:10:38;;;;;;;2.83;2.63;;;;;;;18.20;86.46;63887.75;5007171;28;20233;-77
2022/09/06 18:13:07;;;;;;;3.03;2.83;;;;;;;18.22;86.42;63882.06;4996309;28;20202;-77
2022/09/06 18:15:39;;;;;;;2.63;2.47;;;;;;;18.29;85.75;63894.03;4999099;28;20202;-77
2022/09/06 18:18:06;;;;;;;3.17;2.88;;;;;;;18.28;86.01;63890.38;4995567;28;20231;-77
2022/09/06 18:20:33;;;;;;;3.03;2.92;;;;;;;18.27;86.34;63889.34;5005661;28;20265;-77
2022/09/06 18:22:59;;;;;;;2.78;2.58;;;;;;;18.27;86.11;63894.50;5023776;28;20230;-76
2022/09/06 18:25:27;;;;;;;3.45;2.22;;;;;;;18.24;86.63;63884.16;5003393;28;20500;-76
2022/09/06 18:27:53;;;;;;;2.83;2.60;;;;;;;18.14;87.71;63871.16;4986708;28;20279;-77
2022/09/06 18:30:24;;;;;;;3.80;2.58;;;;;;;18.11;86.92;63875.25;4996673;28;20490;-78
2022/09/06 18:32:51;;;;;;;3.05;2.85;;;;;;;18.18;86.27;63877.94;5010346;28;20369;-77
2022/09/06 18:35:18;;;;;;;5.85;2.97;;;;;;;18.11;86.30;63870.09;5001180;28;20209;-79
2022/09/06 18:37:47;;;;;;;2.40;2.22;;;;;;;18.15;86.63;63874.28;5006054;28;20249;-78
2022/09/06 18:40:14;;;;;;;3.05;2.85;;;;;;;18.15;86.59;63874.78;5013028;28;20206;-77
2022/09/06 18:42:43;;;;;;;3.72;3.08;;;;;;;18.16;87.13;63875.31;5019681;28;20242;-77
2022/09/06 18:45:11;;;;;;;2.80;2.67;;;;;;;18.08;87.07;63870.09;5007419;28;20510;-77
2022/09/06 18:47:42;;;;;;;3.55;2.80;;;;;;;18.00;87.25;63861.22;5015739;28;20230;-77
2022/09/06 18:50:09;;;;;;;2.80;2.60;;;;;;;18.03;86.58;63864.88;5020524;28;20208;-77
2022/09/06 18:52:37;;;;;;;3.10;2.90;;;;;;;18.00;86.72;63861.22;5016243;28;20215;-78
2022/09/06 18:55:05;;;;;;;2.40;2.30;;;;;;;17.95;87.17;63858.59;4994123;28;20495;-77
2022/09/06 18:57:32;;;;;;;2.50;2.40;;;;;;;17.98;87.79;63856.56;5002811;28;20226;-77
2022/09/06 18:59:59;;;;;;;3.20;2.95;;;;;;;17.95;88.25;63853.44;5004557;28;20203;-76
2022/09/06 19:02:27;;;;;;;3.03;2.85;;;;;;;17.84;88.86;63839.94;5005215;28;20235;-76
2022/09/06 19:04:58;;;;;;;2.85;2.75;;;;;;;17.78;89.19;63838.84;5007665;28;20199;-76
2022/09/06 19:07:24;;;;;;;3.38;3.10;;;;;;;17.70;89.39;63830.50;5009218;28;20228;-76
2022/09/06 19:09:52;;;;;;;4.13;3.78;;;;;;;17.61;90.34;63823.19;4999079;28;20215;-77
2022/09/06 19:12:20;;;;;;;4.65;3.42;;;;;;;17.61;90.79;63820.59;5003572;28;20281;-76
2022/09/06 19:14:47;;;;;;;4.25;4.03;;;;;;;17.62;91.34;63824.72;5004214;28;20483;-75
2022/09/06 19:17:13;;;;;;;4.18;3.88;;;;;;;17.55;91.51;63816.94;5021010;28;20447;-75
2022/09/06 19:19:40;;;;;;;3.60;3.40;;;;;;;17.44;92.02;63802.88;5009514;28;20199;-75
2022/09/06 19:22:09;;;;;;;3.85;3.22;;;;;;;17.42;93.61;63803.38;5003611;28;20293;-76
2022/09/06 19:24:37;;;;;;;7.35;2.97;;;;;;;17.32;94.11;63791.41;5001789;28;20191;-76
2022/09/06 19:27:05;;;;;;;4.43;3.15;;;;;;;17.24;94.70;63782.56;5002681;28;20222;-77
2022/09/06 19:29:32;;;;;;;3.42;3.15;;;;;;;17.18;95.08;63776.88;4999978;28;20207;-77
2022/09/06 19:31:59;;;;;;;4.18;3.50;;;;;;;17.08;96.20;63766.44;4993754;28;20219;-77
2022/09/06 19:34:26;;;;;;;3.50;3.30;;;;;;;16.93;97.28;63747.72;5004266;28;20206;-76
2022/09/06 19:36:54;;;;;;;3.17;3.08;;;;;;;16.78;98.07;63732.66;5000521;28;20472;-77
2022/09/06 19:39:22;;;;;;;6.82;3.45;;;;;;;16.74;98.83;63730.56;5027945;28;20474;-76
2022/09/06 19:41:49;;;;;;;3.88;3.60;;;;;;;16.75;97.99;63732.09;5027806;28;20288;-76
2022/09/06 19:44:18;;;;;;;3.58;3.47;;;;;;;16.67;97.60;63725.84;5010408;28;20206;-76
2022/09/06 19:46:45;;;;;;;4.68;4.38;;;;;;;16.73;96.59;63732.06;5018640;28;20221;-76
2022/09/06 19:49:13;;;;;;;4.28;4.07;;;;;;;16.72;96.10;63726.41;5017738;28;20205;-75
2022/09/06 19:51:41;;;;;;;4.20;3.95;;;;;;;16.75;96.20;63732.09;5010398;28;20246;-76
2022/09/06 19:54:08;;;;;;;4.60;4.30;;;;;;;16.76;95.64;63735.19;5009330;28;20264;-76
2022/09/06 19:56:37;;;;;;;4.70;4.30;;;;;;;16.77;95.96;63728.53;5010117;28;20226;-76
2022/09/06 19:59:05;;;;;;;4.75;4.40;;;;;;;16.83;95.12;63740.44;5007740;28;20199;-79
2022/09/06 20:01:36;;;;;;;4.00;3.80;;;;;;;16.82;94.83;63741.44;5008939;28;20222;-79
2022/09/06 20:04:05;;;;;;;4.80;4.40;;;;;;;16.81;94.62;63737.81;5013689;28;20229;-76
2022/09/06 20:06:33;;;;;;;4.80;4.45;;;;;;;16.82;94.35;63739.41;5029703;28;20236;-77
2022/09/06 20:09:01;;;;;;;5.22;4.80;;;;;;;16.82;94.19;63738.88;5027944;28;20198;-78
2022/09/06 20:11:29;;;;;;;5.13;4.25;;;;;;;16.84;94.49;63740.94;5029179;28;20337;-77
2022/09/06 20:14:00;;;;;;;4.60;4.20;;;;;;;16.83;94.76;63739.91;5013130;28;20203;-78
2022/09/06 20:16:29;;;;;;;5.55;4.95;;;;;;;16.88;93.97;63743.06;5008976;28;20229;-77
2022/09/06 20:18:57;;;;;;;4.60;4.30;;;;;;;16.87;94.47;63741.50;5006419;28;20210;-78
2022/09/06 20:21:24;;;;;;;4.80;4.35;;;;;;;16.84;94.32;63738.88;5007068;28;20222;-77
2022/09/06 20:23:53;;;;;;;4.75;4.45;;;;;;;16.90;94.00;63742.56;5010699;28;20412;-77
2022/09/06 20:26:22;;;;;;;5.05;4.75;;;;;;;16.92;93.61;63746.69;4989774;28;20267;-78
2022/09/06 20:28:54;;;;;;;4.38;4.07;;;;;;;16.91;93.59;63745.66;5013809;28;20249;-77
2022/09/06 20:31:22;;;;;;;4.38;4.10;;;;;;;16.95;93.33;63754.97;5008072;28;20293;-77
2022/09/06 20:33:49;;;;;;;4.53;4.22;;;;;;;16.95;93.71;63752.38;5008786;28;20210;-76
2022/09/06 20:36:17;;;;;;;4.00;3.80;;;;;;;16.94;93.83;63749.31;5005340;28;20246;-78
2022/09/06 20:38:44;;;;;;;5.03;3.78;;;;;;;17.00;93.68;63755.53;5010687;28;20509;-75
2022/09/06 20:41:14;;;;;;;4.50;4.25;;;;;;;17.02;93.84;63759.69;5008510;28;20223;-76
2022/09/06 20:43:42;;;;;;;4.22;3.92;;;;;;;16.99;94.13;63753.97;5021906;28;20237;-76
2022/09/06 20:46:11;;;;;;;5.13;4.20;;;;;;;16.98;93.88;63756.03;4990014;28;20227;-77
2022/09/06 20:48:40;;;;;;;4.97;4.60;;;;;;;16.98;93.97;63753.47;5000945;28;20226;-76
2022/09/06 20:51:09;;;;;;;4.43;4.00;;;;;;;16.96;94.31;63750.88;5014897;28;20424;-79
2022/09/06 20:53:39;;;;;;;4.28;4.00;;;;;;;16.93;93.95;63753.41;5015874;28;20383;-77
2022/09/06 20:56:08;;;;;;;3.88;3.67;;;;;;;16.91;94.70;63748.75;5007716;28;20225;-76
2022/09/06 20:58:36;;;;;;;4.85;4.45;;;;;;;16.85;95.63;63745.09;5008747;28;20199;-76
2022/09/06 21:01:07;;;;;;;4.47;4.07;;;;;;;16.76;96.55;63735.72;5011145;28;20270;-78
2022/09/06 21:03:37;;;;;;;4.30;4.00;;;;;;;16.60;98.27;63713.41;4994507;28;20257;-77
2022/09/06 21:06:06;;;;;;;4.15;3.95;;;;;;;16.47;99.52;63702.44;4988737;28;20532;-77
2022/09/06 21:08:33;;;;;;;4.60;4.40;;;;;;;16.33;100.00;63688.38;5003467;28;20194;-78
2022/09/06 21:11:00;;;;;;;4.93;4.50;;;;;;;16.31;100.00;63683.72;5016024;28;20572;-76
2022/09/06 21:13:27;;;;;;;5.15;4.75;;;;;;;16.30;100.00;63684.75;4987780;28;20215;-76
2022/09/06 21:15:54;;;;;;;4.53;4.32;;;;;;;16.24;100.00;63679.00;4987822;28;20230;-76
2022/09/06 21:18:22;;;;;;;5.82;5.47;;;;;;;16.20;100.00;63674.88;5011967;28;20202;-76
2022/09/06 21:20:54;;;;;;;5.45;5.15;;;;;;;16.13;100.00;63665.00;5026381;28;20222;-76
2022/09/06 21:23:23;;;;;;;5.22;4.82;;;;;;;16.12;100.00;63669.09;5016434;28;20237;-76
2022/09/06 21:25:54;;;;;;;5.18;4.78;;;;;;;16.10;100.00;63661.91;4999833;28;20243;-76
2022/09/06 21:28:21;;;;;;;6.32;4.95;;;;;;;16.07;100.00;63663.91;5022575;28;20198;-76
2022/09/06 21:30:48;;;;;;;5.07;4.70;;;;;;;16.09;100.00;63666.50;5017547;28;20321;-76
2022/09/06 21:33:15;;;;;;;5.40;5.00;;;;;;;16.05;100.00;63656.69;4997178;28;20546;-76
2022/09/06 21:35:42;;;;;;;5.05;4.75;;;;;;;16.05;100.00;63659.78;4993056;28;20203;-76
2022/09/06 21:38:09;;;;;;;5.05;4.47;;;;;;;16.02;100.00;63654.09;5027915;28;20549;-76
2022/09/06 21:40:37;;;;;;;5.28;4.97;;;;;;;16.01;100.00;63657.69;5013758;28;20222;-76
2022/09/06 21:43:04;;;;;;;6.50;5.10;;;;;;;15.95;100.00;63646.81;4994714;28;20426;-76
2022/09/06 21:45:31;;;;;;;5.30;5.00;;;;;;;16.00;100.00;63651.47;4996181;28;20206;-77
2022/09/06 21:47:57;;;;;;;6.03;5.43;;;;;;;15.96;100.00;63647.84;5006220;28;20309;-77
2022/09/06 21:50:24;;;;;;;5.72;5.20;;;;;;;15.92;100.00;63643.69;5005055;28;20211;-76
2022/09/06 21:52:52;;;;;;;4.70;4.40;;;;;;;15.95;100.00;63649.38;4987882;28;20200;-75
2022/09/06 21:55:19;;;;;;;4.95;4.57;;;;;;;15.92;100.00;63643.69;5001909;28;20223;-76
2022/09/06 21:57:48;;;;;;;4.97;4.55;;;;;;;15.83;100.00;63633.81;5008654;28;20676;-77
2022/09/06 22:00:17;;;;;;;4.30;4.00;;;;;;;15.89;100.00;63640.06;5002161;28;20198;-77
2022/09/06 22:02:43;;;;;;;5.20;4.28;;;;;;;15.86;100.00;63637.44;5006127;28;20478;-75
2022/09/06 22:05:10;;;;;;;4.65;4.35;;;;;;;15.90;100.00;63643.66;5018718;28;20424;-77
2022/09/06 22:07:37;;;;;;;4.70;3.92;;;;;;;15.84;100.00;63637.94;4991497;28;20223;-76
2022/09/06 22:10:05;;;;;;;4.45;4.18;;;;;;;15.83;100.00;63636.91;4987723;28;20199;-76
2022/09/06 22:12:32;;;;;;;4.80;4.40;;;;;;;15.83;100.00;63639.47;5000054;28;20222;-76
2022/09/06 22:15:00;;;;;;;4.88;4.47;;;;;;;15.83;100.00;63633.81;5010651;28;20198;-75
2022/09/06 22:17:27;;;;;;;4.88;4.47;;;;;;;15.80;100.00;63631.22;4986220;28;20220;-76
2022/09/06 22:19:54;;;;;;;4.65;4.43;;;;;;;15.79;100.00;63634.81;4987630;28;20199;-75
2022/09/06 22:22:20;;;;;;;5.80;4.60;;;;;;;15.78;100.00;63628.63;5012079;28;20293;-76
2022/09/06 22:24:47;;;;;;;4.88;4.57;;;;;;;15.78;100.00;63633.75;5003104;28;20237;-75
2022/09/06 22:27:14;;;;;;;4.80;4.45;;;;;;;15.74;100.00;63624.44;4985559;28;20223;-75
2022/09/06 22:29:41;;;;;;;4.30;4.00;;;;;;;15.72;100.00;63625.47;4988857;28;20199;-76
2022/09/06 22:32:09;;;;;;;4.70;4.40;;;;;;;15.73;100.00;63620.84;5025804;28;20249;-76
2022/09/06 22:34:36;;;;;;;4.88;4.55;;;;;;;15.73;100.00;63625.97;4990776;28;20216;-76
2022/09/06 22:37:03;;;;;;;4.55;4.28;;;;;;;15.72;100.00;63628.03;4985540;28;20223;-75
2022/09/06 22:39:30;;;;;;;5.03;4.75;;;;;;;15.75;100.00;63628.06;4999138;28;20198;-77
2022/09/06 22:41:59;;;;;;;6.13;5.65;;;;;;;15.74;100.00;63624.44;5014457;28;20223;-78
2022/09/06 22:44:26;;;;;;;6.43;5.85;;;;;;;15.71;100.00;63621.84;5005994;28;20241;-76
2022/09/06 22:46:53;;;;;;;4.80;4.60;;;;;;;15.68;100.00;63618.75;5007817;28;20215;-76
2022/09/06 22:49:21;;;;;;;5.10;4.80;;;;;;;15.66;100.00;63616.13;5013805;28;20206;-76
2022/09/06 22:51:48;;;;;;;5.30;5.00;;;;;;;15.63;100.00;63615.59;5007128;28;20277;-77
2022/09/06 22:54:15;;;;;;;6.15;4.80;;;;;;;15.66;100.00;63618.69;5004805;28;20438;-76
2022/09/06 22:56:42;;;;;;;5.20;4.90;;;;;;;15.62;100.00;63617.63;5004058;28;20218;-78
2022/09/06 22:59:09;;;;;;;5.03;4.63;;;;;;;15.64;100.00;63617.16;5019968;28;20199;-76
2022/09/06 23:01:38;;;;;;;5.55;5.15;;;;;;;15.59;100.00;63611.44;5007012;28;20223;-75
2022/09/06 23:04:06;;;;;;;5.10;4.72;;;;;;;15.58;100.00;63610.91;5005970;28;20419;-75
2022/09/06 23:06:34;;;;;;;5.65;5.32;;;;;;;15.45;100.00;63592.25;5009562;28;20254;-76
2022/09/06 23:09:02;;;;;;;5.65;5.35;;;;;;;15.37;100.00;63586.50;5010520;28;20263;-76
2022/09/06 23:11:31;;;;;;;5.65;5.25;;;;;;;15.34;100.00;63588.00;5002393;28;20242;-76
2022/09/06 23:13:59;;;;;;;5.38;5.07;;;;;;;15.31;100.00;63580.25;5005360;28;20230;-76
2022/09/06 23:16:27;;;;;;;5.85;5.55;;;;;;;15.25;100.00;63573.50;5011610;28;20222;-75
2022/09/06 23:18:55;;;;;;;6.35;5.95;;;;;;;15.31;100.00;63582.81;4984292;28;20208;-76
2022/09/06 23:21:24;;;;;;;7.25;5.55;;;;;;;15.31;100.00;63580.25;4988404;28;20220;-76
2022/09/06 23:23:55;;;;;;;6.43;5.95;;;;;;;15.16;100.00;63566.72;4985587;28;20235;-77
2022/09/06 23:26:23;;;;;;;6.53;6.07;;;;;;;15.10;100.00;63558.44;5020951;28;20241;-76
2022/09/06 23:28:55;;;;;;;6.93;6.28;;;;;;;15.03;100.00;63549.13;5002074;28;20203;-76
2022/09/06 23:31:23;;;;;;;7.65;7.05;;;;;;;15.04;100.00;63554.75;5005146;28;20582;-76
2022/09/06 23:33:52;;;;;;;6.93;6.43;;;;;;;15.08;100.00;63559.44;4996439;28;20207;-75
2022/09/06 23:36:19;;;;;;;7.05;6.55;;;;;;;15.13;100.00;63561.03;4988751;28;20227;-76
2022/09/06 23:38:46;;;;;;;6.28;5.88;;;;;;;15.11;100.00;63562.03;5004358;28;20211;-76
2022/09/06 23:41:14;;;;;;;6.05;5.65;;;;;;;15.13;100.00;63561.56;5003934;28;20230;-75